Time,TemperatureF,DewpointF,PressureIn,WindDirection,WindDirectionDegrees,WindSpeedMPH,WindSpeedGustMPH,Humidity,HourlyPrecipIn,Conditions,Clouds,dailyrainin,SoftwareType,DateUTC
2013-06-09 00:02:00,56.0,52.0,30.00,SE,135,2.0,4.0,85,0.00,,,0.00,,2013-06-09 05:02:00,
2013-06-09 00:12:00,56.0,52.0,30.00,SE,135,2.0,4.0,85,0.00,,,0.00,,2013-06-09 05:12:00,
2013-06-09 00:22:00,56.0,51.0,30.00,ENE,64,0.0,3.0,84,0.00,,,0.00,,2013-06-09 05:22:00,
2013-06-09 00:32:00,56.0,51.0,30.00,ESE,106,0.0,2.0,84,0.00,,,0.00,,2013-06-09 05:32:00,
2013-06-09 00:42:00,56.0,51.0,30.00,ESE,106,0.0,2.0,84,0.00,,,0.00,,2013-06-09 05:42:00,
2013-06-09 00:52:00,56.0,51.0,30.00,NNE,32,0.0,2.0,83,0.00,,,0.00,,2013-06-09 05:52:00,
2013-06-09 01:02:00,56.0,51.0,30.00,NNE,32,0.0,2.0,83,0.00,,,0.00,,2013-06-09 06:02:00,
2013-06-09 01:12:00,56.0,51.0,30.00,NNE,32,0.0,2.0,83,0.00,,,0.00,,2013-06-09 06:12:00,
2013-06-09 01:22:00,56.0,51.0,30.00,NNE,32,0.0,2.0,83,0.00,,,0.00,,2013-06-09 06:22:00,
2013-06-09 01:52:00,55.0,50.0,30.00,NNE,12,0.0,2.0,83,0.00,,,0.00,,2013-06-09 06:52:00,
2013-06-09 02:02:00,54.0,49.0,29.99,NNE,25,0.0,2.0,83,0.00,,,0.00,,2013-06-09 07:02:00,
2013-06-09 02:12:00,54.0,49.0,29.99,NNE,25,0.0,2.0,83,0.00,,,0.00,,2013-06-09 07:12:00,
2013-06-09 02:22:00,54.0,49.0,29.99,NNE,25,0.0,2.0,83,0.00,,,0.00,,2013-06-09 07:22:00,
2013-06-09 02:32:00,55.0,50.0,29.98,North,9,1.0,2.0,83,0.00,,,0.00,,2013-06-09 07:32:00,
2013-06-09 02:42:00,55.0,50.0,29.98,North,9,1.0,2.0,83,0.00,,,0.00,,2013-06-09 07:42:00,
2013-06-09 02:52:00,55.0,50.0,29.98,North,9,1.0,2.0,83,0.00,,,0.00,,2013-06-09 07:52:00,
2013-06-09 03:02:00,55.0,50.0,29.98,North,9,0.0,2.0,84,0.00,,,0.00,,2013-06-09 08:02:00,
2013-06-09 03:12:00,55.0,50.0,29.98,North,9,0.0,2.0,84,0.00,,,0.00,,2013-06-09 08:12:00,
2013-06-09 03:22:00,54.0,49.0,29.98,North,5,0.0,2.0,84,0.00,,,0.00,,2013-06-09 08:22:00,
2013-06-09 03:32:00,54.0,49.0,29.98,North,8,0.0,2.0,84,0.00,,,0.00,,2013-06-09 08:32:00,
2013-06-09 03:42:00,54.0,49.0,29.98,North,8,0.0,2.0,84,0.00,,,0.00,,2013-06-09 08:42:00,
2013-06-09 03:53:00,54.0,50.0,29.98,NNW,334,0.0,2.0,86,0.00,,,0.00,,2013-06-09 08:53:00,
2013-06-09 04:02:00,54.0,50.0,29.97,NNW,347,1.0,3.0,85,0.00,,,0.00,,2013-06-09 09:02:00,
2013-06-09 04:12:00,54.0,50.0,29.97,NNW,347,1.0,3.0,85,0.00,,,0.00,,2013-06-09 09:12:00,
2013-06-09 04:22:00,54.0,50.0,29.97,NNW,347,1.0,3.0,85,0.00,,,0.00,,2013-06-09 09:22:00,
2013-06-09 04:33:00,54.0,50.0,29.97,NNW,347,1.0,3.0,85,0.00,,,0.00,,2013-06-09 09:33:00,
2013-06-09 04:43:00,54.0,50.0,29.97,NNW,347,1.0,3.0,85,0.00,,,0.00,,2013-06-09 09:43:00,
2013-06-09 04:52:00,55.0,51.0,29.97,NNW,328,0.0,2.0,86,0.00,,,0.00,,2013-06-09 09:52:00,
2013-06-09 05:03:00,55.0,51.0,29.97,NNW,328,0.0,2.0,86,0.00,,,0.00,,2013-06-09 10:03:00,
2013-06-09 05:12:00,55.0,51.0,29.97,NNW,328,0.0,2.0,86,0.00,,,0.00,,2013-06-09 10:12:00,
2013-06-09 05:23:00,56.0,50.0,29.98,North,10,0.0,2.0,80,0.00,,,0.00,,2013-06-09 10:23:00,
2013-06-09 05:32:00,56.0,50.0,29.98,North,10,0.0,2.0,80,0.00,,,0.00,,2013-06-09 10:32:00,
2013-06-09 05:43:00,56.0,50.0,29.98,North,10,0.0,2.0,80,0.00,,,0.00,,2013-06-09 10:43:00,
2013-06-09 05:52:00,56.0,49.0,29.97,North,350,0.0,2.0,77,0.00,,,0.00,,2013-06-09 10:52:00,
2013-06-09 06:02:00,57.0,49.0,29.97,North,359,0.0,2.0,75,0.00,,,0.00,,2013-06-09 11:02:00,
2013-06-09 06:12:00,57.0,49.0,29.97,North,359,0.0,2.0,75,0.00,,,0.00,,2013-06-09 11:12:00,
2013-06-09 06:22:00,57.0,49.0,29.97,East,86,0.0,2.0,75,0.00,,,0.00,,2013-06-09 11:22:00,
2013-06-09 06:32:00,57.0,49.0,29.97,East,86,0.0,2.0,75,0.00,,,0.00,,2013-06-09 11:32:00,
2013-06-09 06:42:00,57.0,49.0,29.97,East,86,0.0,2.0,75,0.00,,,0.00,,2013-06-09 11:42:00,
2013-06-09 06:52:00,58.0,50.0,29.97,NNE,13,0.0,3.0,74,0.00,,,0.00,,2013-06-09 11:52:00,
2013-06-09 07:02:00,59.0,50.0,29.97,NNE,26,2.0,4.0,72,0.00,,,0.00,,2013-06-09 12:02:00,
2013-06-09 07:12:00,59.0,50.0,29.97,NNE,26,2.0,4.0,72,0.00,,,0.00,,2013-06-09 12:12:00,
2013-06-09 07:22:00,59.0,50.0,29.97,NNE,12,0.0,4.0,73,0.00,,,0.00,,2013-06-09 12:22:00,
2013-06-09 07:32:00,59.0,50.0,29.97,NNE,12,0.0,4.0,73,0.00,,,0.00,,2013-06-09 12:32:00,
2013-06-09 07:42:00,59.0,50.0,29.97,NNE,12,0.0,4.0,73,0.00,,,0.00,,2013-06-09 12:42:00,
2013-06-09 07:52:00,59.0,50.0,29.97,NNE,12,0.0,4.0,73,0.00,,,0.00,,2013-06-09 12:52:00,
2013-06-09 08:02:00,61.0,53.0,29.96,East,87,1.0,4.0,74,0.00,,,0.00,,2013-06-09 13:02:00,
2013-06-09 08:12:00,61.0,53.0,29.96,East,87,1.0,4.0,74,0.00,,,0.00,,2013-06-09 13:12:00,
2013-06-09 08:22:00,61.0,53.0,29.96,East,87,1.0,4.0,74,0.00,,,0.00,,2013-06-09 13:22:00,
2013-06-09 08:32:00,64.0,54.0,29.95,ENE,72,0.0,2.0,70,0.00,,,0.00,,2013-06-09 13:32:00,
2013-06-09 08:42:00,64.0,54.0,29.95,ENE,72,0.0,2.0,70,0.00,,,0.00,,2013-06-09 13:42:00,
2013-06-09 08:52:00,64.0,54.0,29.95,ENE,72,0.0,2.0,70,0.00,,,0.00,,2013-06-09 13:52:00,
2013-06-09 09:02:00,68.0,56.0,29.95,SE,125,1.0,4.0,65,0.00,,,0.00,,2013-06-09 14:02:00,
2013-06-09 09:12:00,68.0,56.0,29.95,SE,125,1.0,4.0,65,0.00,,,0.00,,2013-06-09 14:12:00,
2013-06-09 09:22:00,68.0,56.0,29.95,SE,125,1.0,4.0,65,0.00,,,0.00,,2013-06-09 14:22:00,
2013-06-09 09:32:00,68.0,56.0,29.95,SE,125,1.0,4.0,65,0.00,,,0.00,,2013-06-09 14:32:00,
2013-06-09 09:42:00,68.0,56.0,29.95,SE,125,1.0,4.0,65,0.00,,,0.00,,2013-06-09 14:42:00,
2013-06-09 09:52:00,70.0,57.0,29.94,SE,131,2.0,5.0,64,0.00,,,0.00,,2013-06-09 14:52:00,
2013-06-09 10:02:00,71.0,58.0,29.95,East,90,3.0,4.0,64,0.00,,,0.00,,2013-06-09 15:02:00,
2013-06-09 10:12:00,71.0,58.0,29.95,East,90,3.0,4.0,64,0.00,,,0.00,,2013-06-09 15:12:00,
2013-06-09 10:22:00,72.0,58.0,29.94,SE,132,2.0,5.0,61,0.00,,,0.00,,2013-06-09 15:22:00,
2013-06-09 10:33:00,73.0,59.0,29.93,East,99,4.0,7.0,61,0.00,,,0.00,,2013-06-09 15:33:00,
2013-06-09 10:43:00,73.0,59.0,29.93,East,99,4.0,7.0,61,0.00,,,0.00,,2013-06-09 15:43:00,
2013-06-09 10:53:00,73.0,59.0,29.93,East,99,4.0,7.0,61,0.00,,,0.00,,2013-06-09 15:53:00,
2013-06-09 11:03:00,76.0,60.0,29.93,East,100,3.0,7.0,58,0.00,,,0.00,,2013-06-09 16:03:00,
2013-06-09 11:13:00,76.0,60.0,29.93,East,100,3.0,7.0,58,0.00,,,0.00,,2013-06-09 16:13:00,
2013-06-09 11:23:00,76.0,58.0,29.92,ESE,123,4.0,10.0,54,0.00,,,0.00,,2013-06-09 16:23:00,
2013-06-09 11:33:00,77.0,60.0,29.92,ESE,109,3.0,11.0,55,0.00,,,0.00,,2013-06-09 16:33:00,
2013-06-09 11:42:00,77.0,60.0,29.92,ESE,109,3.0,11.0,55,0.00,,,0.00,,2013-06-09 16:42:00,
2013-06-09 11:53:00,78.0,59.0,29.92,East,95,3.0,8.0,53,0.00,,,0.00,,2013-06-09 16:53:00,
2013-06-09 12:02:00,78.0,59.0,29.91,ESE,121,4.0,8.0,52,0.00,,,0.00,,2013-06-09 17:02:00,
2013-06-09 12:12:00,78.0,59.0,29.91,ESE,121,4.0,8.0,52,0.00,,,0.00,,2013-06-09 17:12:00,
2013-06-09 12:22:00,79.0,60.0,29.91,ESE,103,4.0,11.0,53,0.00,,,0.00,,2013-06-09 17:22:00,
2013-06-09 12:32:00,79.0,60.0,29.91,ESE,103,4.0,11.0,53,0.00,,,0.00,,2013-06-09 17:32:00,
2013-06-09 12:42:00,79.0,60.0,29.91,ESE,103,4.0,11.0,53,0.00,,,0.00,,2013-06-09 17:42:00,
2013-06-09 12:52:00,79.0,60.0,29.90,East,79,4.0,9.0,52,0.00,,,0.00,,2013-06-09 17:52:00,
2013-06-09 13:02:00,78.0,61.0,29.89,East,95,4.0,11.0,55,0.00,,,0.00,,2013-06-09 18:02:00,
2013-06-09 13:12:00,78.0,61.0,29.89,East,95,4.0,11.0,55,0.00,,,0.00,,2013-06-09 18:12:00,
2013-06-09 13:21:00,78.0,61.0,29.89,East,95,4.0,11.0,55,0.00,,,0.00,,2013-06-09 18:21:00,
2013-06-09 13:32:00,78.0,61.0,29.89,ESE,113,4.0,15.0,55,0.00,,,0.00,,2013-06-09 18:32:00,
2013-06-09 13:42:00,78.0,61.0,29.89,ESE,113,4.0,15.0,55,0.00,,,0.00,,2013-06-09 18:42:00,
2013-06-09 13:52:00,79.0,61.0,29.88,East,94,4.0,11.0,55,0.00,,,0.00,,2013-06-09 18:52:00,
2013-06-09 14:02:00,78.0,62.0,29.88,ESE,109,10.0,18.0,57,0.00,,,0.00,,2013-06-09 19:02:00,
2013-06-09 14:12:00,78.0,62.0,29.88,ESE,109,10.0,18.0,57,0.00,,,0.00,,2013-06-09 19:12:00,
2013-06-09 14:22:00,78.0,61.0,29.88,ESE,113,5.0,14.0,56,0.00,,,0.00,,2013-06-09 19:22:00,
2013-06-09 14:32:00,77.0,61.0,29.88,ESE,113,7.0,16.0,57,0.00,,,0.00,,2013-06-09 19:32:00,
2013-06-09 14:42:00,77.0,61.0,29.88,ESE,113,7.0,16.0,57,0.00,,,0.00,,2013-06-09 19:42:00,
2013-06-09 14:52:00,76.0,60.0,29.87,ESE,121,4.0,19.0,58,0.00,,,0.00,,2013-06-09 19:52:00,
2013-06-09 15:02:00,77.0,62.0,29.87,ESE,121,4.0,16.0,59,0.00,,,0.00,,2013-06-09 20:02:00,
2013-06-09 15:12:00,77.0,62.0,29.87,ESE,121,4.0,16.0,59,0.00,,,0.00,,2013-06-09 20:12:00,
2013-06-09 15:22:00,76.0,61.0,29.86,East,95,4.0,16.0,60,0.00,,,0.00,,2013-06-09 20:22:00,
2013-06-09 15:32:00,76.0,62.0,29.86,ESE,113,5.0,17.0,62,0.00,,,0.00,,2013-06-09 20:32:00,
2013-06-09 15:42:00,76.0,62.0,29.86,ESE,113,5.0,17.0,62,0.00,,,0.00,,2013-06-09 20:42:00,
2013-06-09 15:52:00,78.0,62.0,29.85,ESE,112,6.0,15.0,59,0.00,,,0.00,,2013-06-09 20:52:00,
2013-06-09 16:02:00,78.0,62.0,29.85,ESE,115,7.0,15.0,59,0.00,,,0.00,,2013-06-09 21:02:00,
2013-06-09 16:12:00,78.0,62.0,29.85,ESE,113,9.0,16.0,58,0.00,,,0.00,,2013-06-09 21:12:00,
2013-06-09 16:22:00,78.0,62.0,29.85,ESE,113,9.0,16.0,58,0.00,,,0.00,,2013-06-09 21:22:00,
2013-06-09 16:33:00,78.0,62.0,29.85,ESE,113,9.0,16.0,58,0.00,,,0.00,,2013-06-09 21:33:00,
2013-06-09 16:43:00,78.0,62.0,29.85,ESE,113,9.0,16.0,58,0.00,,,0.00,,2013-06-09 21:43:00,
2013-06-09 16:53:00,76.0,62.0,29.84,ESE,123,4.0,15.0,61,0.00,,,0.00,,2013-06-09 21:53:00,
2013-06-09 17:02:00,76.0,62.0,29.84,ESE,123,4.0,15.0,61,0.00,,,0.00,,2013-06-09 22:02:00,
2013-06-09 17:13:00,74.0,61.0,29.84,East,96,2.0,15.0,63,0.00,,,0.00,,2013-06-09 22:13:00,
2013-06-09 17:23:00,74.0,61.0,29.84,East,96,2.0,15.0,63,0.00,,,0.00,,2013-06-09 22:23:00,
2013-06-09 17:33:00,74.0,60.0,29.84,East,95,2.0,10.0,61,0.00,,,0.00,,2013-06-09 22:33:00,
2013-06-09 17:42:00,74.0,60.0,29.84,East,95,2.0,10.0,61,0.00,,,0.00,,2013-06-09 22:42:00,
2013-06-09 17:52:00,73.0,59.0,29.84,ESE,111,3.0,11.0,61,0.00,,,0.00,,2013-06-09 22:52:00,
2013-06-09 18:02:00,73.0,59.0,29.83,East,97,3.0,8.0,61,0.00,,,0.00,,2013-06-09 23:02:00,
2013-06-09 18:12:00,73.0,59.0,29.83,East,97,3.0,8.0,61,0.00,,,0.00,,2013-06-09 23:12:00,
2013-06-09 18:22:00,73.0,59.0,29.83,East,97,3.0,8.0,61,0.00,,,0.00,,2013-06-09 23:22:00,
2013-06-09 18:32:00,76.0,60.0,29.83,East,83,4.0,6.0,57,0.00,,,0.00,,2013-06-09 23:32:00,
2013-06-09 18:42:00,76.0,60.0,29.83,East,83,4.0,6.0,57,0.00,,,0.00,,2013-06-09 23:42:00,
2013-06-09 18:52:00,74.0,60.0,29.82,East,98,2.0,7.0,61,0.00,,,0.00,,2013-06-09 23:52:00,
2013-06-09 19:02:00,74.0,60.0,29.82,East,98,2.0,7.0,61,0.00,,,0.00,,2013-06-10 00:02:00,
2013-06-09 19:12:00,74.0,60.0,29.82,East,98,2.0,7.0,61,0.00,,,0.00,,2013-06-10 00:12:00,
2013-06-09 19:22:00,74.0,61.0,29.83,East,86,2.0,5.0,64,0.00,,,0.00,,2013-06-10 00:22:00,
2013-06-09 19:32:00,74.0,61.0,29.83,East,86,2.0,5.0,64,0.00,,,0.00,,2013-06-10 00:32:00,
2013-06-09 19:42:00,74.0,61.0,29.83,East,86,2.0,5.0,64,0.00,,,0.00,,2013-06-10 00:42:00,
2013-06-09 19:52:00,73.0,61.0,29.82,East,90,2.0,5.0,65,0.00,,,0.00,,2013-06-10 00:52:00,
2013-06-09 20:02:00,73.0,61.0,29.81,East,94,3.0,6.0,65,0.00,,,0.00,,2013-06-10 01:02:00,
2013-06-09 20:12:00,73.0,61.0,29.81,East,94,3.0,6.0,65,0.00,,,0.00,,2013-06-10 01:12:00,
2013-06-09 20:22:00,73.0,61.0,29.81,East,94,3.0,6.0,65,0.00,,,0.00,,2013-06-10 01:22:00,
2013-06-09 20:32:00,72.0,60.0,29.81,East,83,2.0,4.0,67,0.00,,,0.00,,2013-06-10 01:32:00,
2013-06-09 20:42:00,72.0,60.0,29.81,East,83,2.0,4.0,67,0.00,,,0.00,,2013-06-10 01:42:00,
2013-06-09 20:52:00,71.0,60.0,29.81,ENE,73,2.0,5.0,68,0.00,,,0.00,,2013-06-10 01:52:00,
2013-06-09 21:02:00,70.0,59.0,29.81,East,85,2.0,4.0,69,0.00,,,0.00,,2013-06-10 02:02:00,
2013-06-09 21:12:00,70.0,59.0,29.81,East,85,2.0,4.0,69,0.00,,,0.00,,2013-06-10 02:12:00,
2013-06-09 21:22:00,70.0,59.0,29.81,East,85,2.0,4.0,69,0.00,,,0.00,,2013-06-10 02:22:00,
2013-06-09 21:32:00,70.0,59.0,29.81,East,85,2.0,4.0,69,0.00,,,0.00,,2013-06-10 02:32:00,
2013-06-09 21:52:00,68.0,59.0,29.81,East,100,1.0,3.0,73,0.00,,,0.00,,2013-06-10 02:52:00,
2013-06-09 22:02:00,68.0,59.0,29.81,East,100,1.0,3.0,73,0.00,,,0.00,,2013-06-10 03:02:00,
2013-06-09 22:12:00,68.0,59.0,29.81,East,100,1.0,3.0,73,0.00,,,0.00,,2013-06-10 03:12:00,
2013-06-09 22:22:00,68.0,59.0,29.81,East,100,1.0,3.0,73,0.00,,,0.00,,2013-06-10 03:22:00,
2013-06-09 22:33:00,67.0,59.0,29.82,ENE,64,1.0,2.0,76,0.00,,,0.00,,2013-06-10 03:33:00,
2013-06-09 22:43:00,67.0,59.0,29.82,ENE,64,1.0,2.0,76,0.00,,,0.00,,2013-06-10 03:43:00,
2013-06-09 22:53:00,66.0,59.0,29.82,NE,56,0.0,2.0,79,0.00,,,0.00,,2013-06-10 03:53:00,
2013-06-09 23:03:00,66.0,59.0,29.82,NE,56,0.0,2.0,79,0.00,,,0.00,,2013-06-10 04:03:00,
2013-06-09 23:12:00,66.0,59.0,29.82,NE,56,0.0,2.0,79,0.00,,,0.00,,2013-06-10 04:12:00,
2013-06-09 23:23:00,65.0,59.0,29.81,East,83,1.0,2.0,82,0.00,,,0.00,,2013-06-10 04:23:00,
2013-06-09 23:33:00,65.0,60.0,29.81,NE,50,1.0,2.0,83,0.00,,,0.00,,2013-06-10 04:33:00,
2013-06-09 23:42:00,65.0,60.0,29.81,NE,50,1.0,2.0,83,0.00,,,0.00,,2013-06-10 04:42:00,
2013-06-09 23:52:00,65.0,60.0,29.81,South,176,0.0,4.0,85,0.00,,,0.00,,2013-06-10 04:52:00,